Time;durP1;ratioP1;P1;durP2;ratioP2;P2;SDS_P1;SDS_P2;PMS_P1;PMS_P2;Temp;Humidity;BMP_temperature;BMP_pressure;BME280_temperature;BME280_humidity;BME280_pressure;Samples;Min_cycle;Max_cycle;Signal;HPM_P1;HPM_P2
2022/03/14 00:01:50;;;;;;;11.90;8.63;;;9.40;79.10;;;;;;5072921;28;20047;-54
2022/03/14 00:04:17;;;;;;;12.48;8.88;;;9.40;79.30;;;;;;5073050;28;20056;-54
2022/03/14 00:06:49;;;;;;;13.05;8.55;;;9.40;79.70;;;;;;5072122;28;20347;-55
2022/03/14 00:09:17;;;;;;;12.85;9.13;;;9.40;80.40;;;;;;5071852;28;20064;-53
2022/03/14 00:11:44;;;;;;;15.98;9.40;;;9.30;81.10;;;;;;5073070;28;20113;-55
2022/03/14 00:14:10;;;;;;;12.20;9.23;;;9.30;81.50;;;;;;5072462;28;20087;-54
2022/03/14 00:16:38;;;;;;;12.55;8.88;;;9.20;81.20;;;;;;5073000;28;20052;-54
2022/03/14 00:19:06;;;;;;;14.10;9.18;;;9.20;81.60;;;;;;5054877;28;20428;-52
2022/03/14 00:21:35;;;;;;;12.65;8.93;;;9.10;82.40;;;;;;5072699;28;20044;-52
2022/03/14 00:24:01;;;;;;;12.55;9.23;;;9.10;82.20;;;;;;5053701;28;20494;-53
2022/03/14 00:26:27;;;;;;;12.85;9.38;;;9.10;82.70;;;;;;5072635;28;20094;-51
2022/03/14 00:28:54;;;;;;;18.70;10.07;;;9.20;82.90;;;;;;5072018;28;20088;-53
2022/03/14 00:31:20;;;;;;;15.45;9.30;;;9.10;83.20;;;;;;5054896;28;20044;-51
2022/03/14 00:33:46;;;;;;;14.32;9.00;;;9.10;83.90;;;;;;5072533;28;20044;-54
2022/03/14 00:36:12;;;;;;;15.63;8.80;;;9.10;84.70;;;;;;5071161;28;20051;-56
2022/03/14 00:38:39;;;;;;;13.60;9.50;;;9.10;84.60;;;;;;5072551;28;20045;-54
2022/03/14 00:41:07;;;;;;;12.93;8.57;;;9.10;84.90;;;;;;5071996;28;20390;-54
2022/03/14 00:43:34;;;;;;;13.73;9.00;;;9.20;85.40;;;;;;5071062;28;20106;-55
2022/03/14 00:46:00;;;;;;;12.80;8.90;;;9.30;86.00;;;;;;5070875;28;20052;-53
2022/03/14 00:48:26;;;;;;;13.63;9.00;;;9.40;86.50;;;;;;5072363;28;20105;-54
2022/03/14 00:50:53;;;;;;;13.32;8.77;;;9.40;86.90;;;;;;5071111;28;20158;-53
2022/03/14 00:53:19;;;;;;;15.40;8.80;;;9.40;86.90;;;;;;5054160;28;20048;-53
2022/03/14 00:55:45;;;;;;;13.80;8.88;;;9.50;87.80;;;;;;5072276;28;20097;-54
2022/03/14 00:58:10;;;;;;;13.35;9.23;;;9.60;88.20;;;;;;5071461;28;20122;-52
2022/03/14 01:00:36;;;;;;;15.32;9.13;;;9.60;88.20;;;;;;5072065;28;20036;-53
2022/03/14 01:03:02;;;;;;;14.27;9.52;;;9.60;89.40;;;;;;5071446;28;20044;-55
2022/03/14 01:05:28;;;;;;;14.63;9.50;;;9.60;90.00;;;;;;5071419;28;20055;-56
2022/03/14 01:07:54;;;;;;;13.32;9.05;;;9.60;90.30;;;;;;5072067;28;20040;-55
2022/03/14 01:10:20;;;;;;;11.60;7.38;;;9.70;90.80;;;;;;5071709;28;20044;-54
2022/03/14 01:12:46;;;;;;;11.80;8.48;;;9.70;91.00;;;;;;5070647;28;20490;-54
2022/03/14 01:15:12;;;;;;;13.60;8.88;;;9.70;91.90;;;;;;5071528;28;20063;-55
2022/03/14 01:17:40;;;;;;;13.32;8.35;;;9.70;92.70;;;;;;5071907;28;20099;-54
2022/03/14 01:20:08;;;;;;;12.32;8.45;;;9.80;93.20;;;;;;5053749;28;20047;-53
2022/03/14 01:22:35;;;;;;;11.70;8.60;;;9.90;93.60;;;;;;5071821;28;20094;-53
2022/03/14 01:25:01;;;;;;;14.40;9.10;;;9.90;93.90;;;;;;5071727;28;20056;-57
2022/03/14 01:27:27;;;;;;;13.55;8.40;;;9.90;94.70;;;;;;5071065;28;20276;-53
2022/03/14 01:29:53;;;;;;;13.32;8.82;;;9.90;94.20;;;;;;5070423;28;20093;-54
2022/03/14 01:32:19;;;;;;;14.10;9.18;;;10.00;94.40;;;;;;5071426;28;20048;-54
2022/03/14 01:34:44;;;;;;;13.35;8.40;;;10.00;95.80;;;;;;5071589;28;20040;-57
2022/03/14 01:37:11;;;;;;;11.35;7.93;;;10.00;96.00;;;;;;5053328;28;20441;-56
2022/03/14 01:39:37;;;;;;;13.48;9.35;;;10.00;96.10;;;;;;5071736;28;20048;-56
2022/03/14 01:42:03;;;;;;;12.80;8.85;;;10.00;96.20;;;;;;5053664;28;20052;-56
2022/03/14 01:44:30;;;;;;;11.75;8.32;;;10.00;96.60;;;;;;5053357;28;20048;-55
2022/03/14 01:46:57;;;;;;;12.50;8.50;;;10.00;95.90;;;;;;5071548;28;20055;-52
2022/03/14 01:49:23;;;;;;;12.70;9.02;;;10.00;96.70;;;;;;5071296;28;20235;-51
2022/03/14 01:51:52;;;;;;;12.48;9.02;;;10.00;97.00;;;;;;5071447;28;20175;-49
2022/03/14 01:54:19;;;;;;;12.50;9.00;;;10.00;97.20;;;;;;5070050;28;20131;-50
2022/03/14 01:56:46;;;;;;;13.27;9.32;;;10.00;98.10;;;;;;5071347;28;20055;-50
2022/03/14 01:59:13;;;;;;;10.80;8.25;;;10.00;98.30;;;;;;5071109;28;20405;-54
2022/03/14 02:01:39;;;;;;;13.38;8.60;;;10.00;98.20;;;;;;5071095;28;20040;-50
2022/03/14 02:04:08;;;;;;;12.38;8.27;;;10.00;98.90;;;;;;5070746;28;20047;-63
2022/03/14 02:06:35;;;;;;;12.20;8.77;;;9.90;99.00;;;;;;5069642;28;20119;-62
2022/03/14 02:09:04;;;;;;;11.77;8.18;;;9.90;98.50;;;;;;5070290;28;20096;-62
2022/03/14 02:11:30;;;;;;;10.40;7.95;;;9.90;98.30;;;;;;5069940;28;20098;-62
2022/03/14 02:13:56;;;;;;;11.13;7.85;;;9.90;99.90;;;;;;5070939;28;20482;-63
2022/03/14 02:16:21;;;;;;;13.43;8.02;;;10.00;99.30;;;;;;5073035;28;20064;-63
2022/03/14 02:18:47;;;;;;;10.00;7.50;;;10.00;99.10;;;;;;5074203;28;20497;-62
2022/03/14 02:21:13;;;;;;;11.45;8.23;;;10.00;99.50;;;;;;5075170;28;20151;-63
2022/03/14 02:23:40;;;;;;;10.73;8.07;;;10.00;99.60;;;;;;5073635;28;20052;-62
2022/03/14 02:26:06;;;;;;;13.65;7.60;;;9.90;99.50;;;;;;5073456;28;20459;-63
2022/03/14 02:28:32;;;;;;;12.45;7.90;;;10.00;99.80;;;;;;5073459;28;20098;-62
2022/03/14 02:30:58;;;;;;;10.68;7.78;;;10.00;99.90;;;;;;5075026;28;20076;-63
2022/03/14 02:33:23;;;;;;;14.98;7.28;;;10.00;99.90;;;;;;5073445;28;20056;-62
2022/03/14 02:35:50;;;;;;;10.95;8.00;;;9.90;99.90;;;;;;5057101;28;20060;-64
2022/03/14 02:38:16;;;;;;;10.25;7.30;;;10.00;99.90;;;;;;5074835;28;20064;-62
2022/03/14 02:40:46;;;;;;;10.25;7.25;;;10.00;99.90;;;;;;5073330;28;20055;-63
2022/03/14 02:43:24;;;;;;;10.55;7.38;;;10.00;99.90;;;;;;5073621;28;20071;-63
2022/03/14 02:45:51;;;;;;;10.30;7.60;;;10.00;99.90;;;;;;5073555;28;20044;-62
2022/03/14 02:48:18;;;;;;;10.40;7.35;;;10.00;99.90;;;;;;5074452;28;20059;-64
2022/03/14 02:50:44;;;;;;;11.77;8.05;;;10.00;99.90;;;;;;5073999;28;20044;-62
2022/03/14 02:53:13;;;;;;;9.38;7.38;;;9.90;99.90;;;;;;5073070;28;20059;-62
2022/03/14 02:55:39;;;;;;;10.57;7.70;;;10.00;99.90;;;;;;5074128;28;20045;-64
2022/03/14 02:58:06;;;;;;;10.30;7.78;;;10.00;99.90;;;;;;5074403;28;20397;-62
2022/03/14 03:00:35;;;;;;;10.55;7.35;;;10.00;99.90;;;;;;5072685;28;20051;-62
2022/03/14 03:03:02;;;;;;;12.02;7.38;;;10.00;99.90;;;;;;5074283;28;20128;-63
2022/03/14 03:05:31;;;;;;;14.38;8.32;;;9.90;99.90;;;;;;5073025;28;20043;-63
2022/03/14 03:08:01;;;;;;;13.88;7.78;;;10.00;99.90;;;;;;5073235;28;20100;-63
2022/03/14 03:10:34;;;;;;;9.35;6.50;;;10.00;99.90;;;;;;5056684;28;20473;-63
2022/03/14 03:13:03;;;;;;;9.48;7.32;;;10.00;99.90;;;;;;5052042;28;20526;-63
2022/03/14 03:15:29;;;;;;;8.27;6.22;;;10.00;99.90;;;;;;5052073;28;20553;-61
2022/03/14 03:17:55;;;;;;;9.05;6.30;;;10.00;99.90;;;;;;5053090;28;20053;-62
2022/03/14 03:20:21;;;;;;;9.43;6.70;;;10.00;99.90;;;;;;5053955;28;20103;-63
2022/03/14 03:22:47;;;;;;;13.02;7.43;;;10.00;99.90;;;;;;5052665;28;20095;-62
2022/03/14 03:25:13;;;;;;;8.90;6.95;;;10.00;99.90;;;;;;5053879;28;20080;-63
2022/03/14 03:27:38;;;;;;;9.73;6.45;;;10.10;99.90;;;;;;5051271;28;20521;-62
2022/03/14 03:30:05;;;;;;;8.82;6.75;;;10.10;99.90;;;;;;5052629;28;20115;-63
2022/03/14 03:32:30;;;;;;;8.48;6.07;;;10.10;99.90;;;;;;5052265;28;20061;-62
2022/03/14 03:34:56;;;;;;;11.07;6.43;;;10.10;99.90;;;;;;5035999;28;20049;-63
2022/03/14 03:37:22;;;;;;;9.13;6.43;;;10.10;99.90;;;;;;5053777;28;20048;-63
2022/03/14 03:39:47;;;;;;;9.85;6.53;;;10.10;99.90;;;;;;5052007;28;20396;-63
2022/03/14 03:42:13;;;;;;;9.35;6.40;;;10.10;99.90;;;;;;5053628;28;20045;-63
2022/03/14 03:44:39;;;;;;;10.43;6.65;;;10.00;99.90;;;;;;5052047;28;20540;-63
2022/03/14 03:47:05;;;;;;;9.75;6.65;;;10.10;99.90;;;;;;5035928;28;20489;-63
2022/03/14 03:49:31;;;;;;;8.90;6.18;;;10.00;99.90;;;;;;5052362;28;20049;-63
2022/03/14 03:51:57;;;;;;;9.63;7.20;;;10.00;99.90;;;;;;5053464;28;20387;-62
2022/03/14 03:54:22;;;;;;;10.57;7.47;;;9.90;99.90;;;;;;5053464;28;20041;-63
2022/03/14 03:56:48;;;;;;;12.38;7.88;;;9.90;99.90;;;;;;5051845;28;20060;-63
2022/03/14 03:59:15;;;;;;;10.13;7.82;;;9.80;99.90;;;;;;5052330;28;20139;-64
2022/03/14 04:01:41;;;;;;;13.73;8.40;;;9.70;99.90;;;;;;5051589;28;20186;-62
2022/03/14 04:04:07;;;;;;;11.52;7.45;;;9.60;99.90;;;;;;5052062;28;20111;-62
2022/03/14 04:06:34;;;;;;;10.93;7.68;;;9.60;99.90;;;;;;5051870;28;20132;-62
2022/03/14 04:09:05;;;;;;;11.20;8.23;;;9.50;99.90;;;;;;5051890;28;20530;-63
2022/03/14 04:11:31;;;;;;;11.50;8.02;;;9.50;99.90;;;;;;5051225;28;20052;-63
2022/03/14 04:13:59;;;;;;;13.05;7.10;;;9.40;99.90;;;;;;5034420;28;20060;-61
2022/03/14 04:16:26;;;;;;;11.02;7.40;;;9.40;99.90;;;;;;5052486;28;20131;-62
2022/03/14 04:18:53;;;;;;;9.88;7.60;;;9.40;99.90;;;;;;5050822;28;20049;-63
2022/03/14 04:21:20;;;;;;;11.13;7.32;;;9.40;99.90;;;;;;5051551;28;20132;-63
2022/03/14 04:23:46;;;;;;;10.30;7.20;;;9.40;99.90;;;;;;5052573;28;20483;-62
2022/03/14 04:26:12;;;;;;;11.35;7.35;;;9.40;99.90;;;;;;5052575;28;20053;-63
2022/03/14 04:28:40;;;;;;;11.18;7.60;;;9.40;99.90;;;;;;5052702;28;20103;-63
2022/03/14 04:31:07;;;;;;;9.57;7.32;;;9.40;99.90;;;;;;5051776;28;20065;-63
2022/03/14 04:33:33;;;;;;;8.93;6.45;;;9.40;99.90;;;;;;5052292;28;20585;-62
2022/03/14 04:35:59;;;;;;;9.05;6.53;;;9.40;99.90;;;;;;5052014;28;20123;-62
2022/03/14 04:38:29;;;;;;;9.68;6.40;;;9.30;99.90;;;;;;5051867;28;20517;-63
2022/03/14 04:40:54;;;;;;;14.27;6.55;;;9.30;99.90;;;;;;5051740;28;20362;-63
2022/03/14 04:43:21;;;;;;;10.13;6.03;;;9.40;99.90;;;;;;5051048;28;20053;-62
2022/03/14 04:45:48;;;;;;;8.07;6.32;;;9.40;99.90;;;;;;5050944;28;20041;-64
2022/03/14 04:48:14;;;;;;;7.43;5.60;;;9.40;99.90;;;;;;5051355;28;20045;-63
2022/03/14 04:50:42;;;;;;;10.43;6.43;;;9.40;99.90;;;;;;5052425;28;20442;-63
2022/03/14 04:53:08;;;;;;;8.48;6.05;;;9.40;99.90;;;;;;5051160;28;20052;-62
2022/03/14 04:55:35;;;;;;;8.13;5.95;;;9.40;99.90;;;;;;5052444;28;20045;-63
2022/03/14 04:58:04;;;;;;;8.48;6.03;;;9.30;99.90;;;;;;5050778;28;20056;-63
2022/03/14 05:00:32;;;;;;;7.53;5.65;;;9.30;99.90;;;;;;5052150;28;20442;-62
2022/03/14 05:03:06;;;;;;;9.02;5.82;;;9.30;99.90;;;;;;5050826;28;20053;-63
2022/03/14 05:05:31;;;;;;;8.53;5.23;;;9.30;99.90;;;;;;5051044;28;20106;-62
2022/03/14 05:07:57;;;;;;;8.30;6.07;;;9.40;99.90;;;;;;5034104;28;20057;-63
2022/03/14 05:10:23;;;;;;;11.75;6.05;;;9.30;99.90;;;;;;5051928;28;20036;-63
2022/03/14 05:12:49;;;;;;;9.05;6.38;;;9.30;99.90;;;;;;5051807;28;20053;-63
2022/03/14 05:15:18;;;;;;;8.02;5.40;;;9.40;99.90;;;;;;5050448;28;20137;-65
2022/03/14 05:17:47;;;;;;;9.45;6.10;;;9.30;99.90;;;;;;5051011;28;20053;-63
2022/03/14 05:20:13;;;;;;;7.93;5.35;;;9.30;99.90;;;;;;5050792;28;20376;-63
2022/03/14 05:22:43;;;;;;;9.15;5.45;;;9.30;99.90;;;;;;5051859;28;20128;-63
2022/03/14 05:25:10;;;;;;;8.05;5.07;;;9.30;99.90;;;;;;5050211;28;20064;-62
2022/03/14 05:27:37;;;;;;;8.00;5.82;;;9.30;99.90;;;;;;5050732;28;20040;-62
2022/03/14 05:30:03;;;;;;;7.75;5.35;;;9.30;99.90;;;;;;5050370;28;20064;-62
2022/03/14 05:32:29;;;;;;;7.50;5.35;;;9.30;99.90;;;;;;5033667;28;20055;-63
2022/03/14 05:34:54;;;;;;;7.90;5.28;;;9.30;99.90;;;;;;5051273;28;20127;-63
2022/03/14 05:37:20;;;;;;;7.90;5.13;;;9.30;99.90;;;;;;5050488;28;20049;-63
2022/03/14 05:39:47;;;;;;;6.80;4.72;;;9.40;99.90;;;;;;5050703;28;20037;-64
2022/03/14 05:42:13;;;;;;;6.32;4.60;;;9.30;99.90;;;;;;5049523;28;20045;-63
2022/03/14 05:44:39;;;;;;;7.97;4.78;;;9.40;99.90;;;;;;5051775;28;20620;-62
2022/03/14 05:47:05;;;;;;;7.68;4.47;;;9.40;99.90;;;;;;5049970;28;20048;-62
2022/03/14 05:49:30;;;;;;;5.63;3.83;;;9.40;99.90;;;;;;5033908;28;20143;-63
2022/03/14 05:51:56;;;;;;;7.28;4.00;;;9.40;99.90;;;;;;5016593;28;20402;-63
2022/03/14 05:54:22;;;;;;;7.30;4.38;;;9.50;99.90;;;;;;5050045;28;20041;-64
2022/03/14 05:56:48;;;;;;;7.43;3.67;;;9.50;99.90;;;;;;5050121;28;20045;-62
2022/03/14 05:59:14;;;;;;;6.60;4.13;;;9.50;99.90;;;;;;5033432;28;20137;-62
2022/03/14 06:01:40;;;;;;;6.00;3.33;;;9.50;99.90;;;;;;5049884;28;20094;-63
2022/03/14 06:04:06;;;;;;;4.50;3.20;;;9.50;99.90;;;;;;5033128;28;20063;-64
2022/03/14 06:06:34;;;;;;;5.97;4.07;;;9.50;99.90;;;;;;5051134;28;20343;-63
2022/03/14 06:08:59;;;;;;;5.75;3.78;;;9.50;99.90;;;;;;5033311;28;20045;-64
2022/03/14 06:11:26;;;;;;;5.15;3.30;;;9.50;99.90;;;;;;5051081;28;20540;-62
2022/03/14 06:13:52;;;;;;;4.55;3.42;;;9.50;99.90;;;;;;5049446;28;20107;-62
2022/03/14 06:16:18;;;;;;;4.60;3.20;;;9.60;99.90;;;;;;5050654;28;20057;-63
2022/03/14 06:18:44;;;;;;;4.72;2.92;;;9.50;99.90;;;;;;5051211;28;20051;-62
2022/03/14 06:21:09;;;;;;;4.75;3.05;;;9.50;99.90;;;;;;5033234;28;20044;-63
2022/03/14 06:23:36;;;;;;;4.47;3.10;;;9.60;99.90;;;;;;5051108;28;20049;-64
2022/03/14 06:26:02;;;;;;;6.32;3.60;;;9.60;99.90;;;;;;5050892;28;20049;-62
2022/03/14 06:28:27;;;;;;;4.97;3.10;;;9.60;99.90;;;;;;5050979;28;20045;-63
2022/03/14 06:30:53;;;;;;;4.88;3.45;;;9.50;99.90;;;;;;5017000;28;20090;-62
2022/03/14 06:33:19;;;;;;;4.93;3.20;;;9.50;99.90;;;;;;5033185;28;20167;-62
2022/03/14 06:35:46;;;;;;;5.13;3.55;;;9.50;99.90;;;;;;5050977;28;20124;-62
2022/03/14 06:38:11;;;;;;;4.70;2.72;;;9.50;99.90;;;;;;5050825;28;20056;-63
2022/03/14 06:40:38;;;;;;;5.85;3.75;;;9.60;99.90;;;;;;5050977;28;20041;-64
2022/03/14 06:43:05;;;;;;;5.13;3.80;;;9.50;99.90;;;;;;5050525;28;20048;-64
2022/03/14 06:45:31;;;;;;;5.22;3.22;;;9.60;99.90;;;;;;5049646;28;20057;-63
2022/03/14 06:47:57;;;;;;;4.53;2.65;;;9.60;99.90;;;;;;5050902;28;20078;-63
2022/03/14 06:50:24;;;;;;;5.57;3.60;;;9.50;99.90;;;;;;5049005;28;20395;-63
2022/03/14 06:52:50;;;;;;;4.70;3.40;;;9.50;99.90;;;;;;5049437;28;20045;-63
2022/03/14 06:55:17;;;;;;;5.47;3.47;;;9.50;99.90;;;;;;5050568;28;20049;-63
2022/03/14 06:57:42;;;;;;;7.28;3.33;;;9.50;99.90;;;;;;5049814;28;20041;-64
2022/03/14 07:00:09;;;;;;;5.10;3.55;;;9.50;99.90;;;;;;5049279;28;20052;-64
2022/03/14 07:02:39;;;;;;;6.75;3.92;;;9.50;99.90;;;;;;5052081;28;20406;-63
2022/03/14 07:05:05;;;;;;;5.25;3.65;;;9.50;99.90;;;;;;5054117;28;20049;-63
2022/03/14 07:07:31;;;;;;;5.70;3.42;;;9.60;99.90;;;;;;5054096;28;20084;-63
2022/03/14 07:09:57;;;;;;;5.55;3.95;;;9.50;99.90;;;;;;5036326;28;20473;-62
2022/03/14 07:12:22;;;;;;;5.00;3.55;;;9.60;99.90;;;;;;5053889;28;20281;-64
2022/03/14 07:14:48;;;;;;;5.22;3.22;;;9.50;99.90;;;;;;5052762;28;20072;-63
2022/03/14 07:17:14;;;;;;;5.53;3.72;;;9.60;99.90;;;;;;5052052;28;20335;-63
2022/03/14 07:19:45;;;;;;;4.95;3.80;;;9.60;99.90;;;;;;5053782;28;20410;-63
2022/03/14 07:22:17;;;;;;;6.50;3.97;;;9.60;99.90;;;;;;5052165;28;20405;-63
2022/03/14 07:24:45;;;;;;;6.57;3.65;;;9.50;99.90;;;;;;5036157;28;20049;-63
2022/03/14 07:27:11;;;;;;;4.65;3.45;;;9.50;99.90;;;;;;5053630;28;20111;-63
2022/03/14 07:29:38;;;;;;;5.80;4.00;;;9.50;99.90;;;;;;5052742;28;20402;-63
2022/03/14 07:32:04;;;;;;;6.32;4.20;;;9.50;99.90;;;;;;5052705;28;20044;-63
2022/03/14 07:34:31;;;;;;;6.43;4.10;;;9.50;99.90;;;;;;5053869;28;20485;-63
2022/03/14 07:36:57;;;;;;;6.20;4.07;;;9.50;99.90;;;;;;5036417;28;20115;-63
2022/03/14 07:39:23;;;;;;;5.30;3.80;;;9.50;99.90;;;;;;5052171;28;20041;-64
2022/03/14 07:41:48;;;;;;;6.15;4.18;;;9.50;99.90;;;;;;5051580;28;20068;-63
2022/03/14 07:44:14;;;;;;;6.28;4.03;;;9.50;99.90;;;;;;5053369;28;20094;-64
2022/03/14 07:46:40;;;;;;;6.40;3.92;;;9.50;99.90;;;;;;5052371;28;20049;-64
2022/03/14 07:49:07;;;;;;;5.32;4.10;;;9.50;99.90;;;;;;5053448;28;20076;-64
2022/03/14 07:51:33;;;;;;;6.75;4.10;;;9.50;99.90;;;;;;5051822;28;20056;-64
2022/03/14 07:54:30;;;;;;;6.40;4.72;;;9.50;99.90;;;;;;5142472;27;20369;-65
2022/03/14 07:56:55;;;;;;;5.95;4.40;;;9.50;99.90;;;;;;5128715;28;20507;-64
2022/03/14 07:59:21;;;;;;;5.82;4.07;;;9.50;99.90;;;;;;5127452;28;20047;-64
2022/03/14 08:01:47;;;;;;;6.72;3.97;;;9.50;99.90;;;;;;5114282;28;20538;-64
2022/03/14 08:04:12;;;;;;;5.90;3.80;;;9.50;99.90;;;;;;5108857;28;20054;-63
2022/03/14 08:06:42;;;;;;;7.25;4.32;;;9.50;99.90;;;;;;5121513;28;20060;-64
2022/03/14 08:09:11;;;;;;;7.50;4.03;;;9.40;99.90;;;;;;5099979;28;20111;-64
2022/03/14 08:11:38;;;;;;;6.05;4.22;;;9.50;99.90;;;;;;5127776;28;20074;-64
2022/03/14 08:14:07;;;;;;;7.60;4.90;;;9.50;99.90;;;;;;5127147;28;20400;-65
2022/03/14 08:16:34;;;;;;;7.47;4.40;;;9.40;99.90;;;;;;5079902;28;20059;-65
2022/03/14 08:18:59;;;;;;;5.72;4.30;;;9.50;99.90;;;;;;5126814;28;20139;-65
2022/03/14 08:21:25;;;;;;;6.50;4.20;;;9.50;99.90;;;;;;5107219;28;20483;-64
2022/03/14 08:23:51;;;;;;;6.93;4.90;;;9.50;99.90;;;;;;5112239;28;20070;-65
2022/03/14 08:26:17;;;;;;;8.05;4.65;;;9.50;99.90;;;;;;5127707;28;20044;-64
2022/03/14 08:28:44;;;;;;;6.40;4.35;;;9.50;99.90;;;;;;5127337;28;20075;-63
2022/03/14 08:31:16;;;;;;;7.28;4.88;;;9.50;99.90;;;;;;5109713;28;20079;-63
2022/03/14 08:33:42;;;;;;;6.57;4.90;;;9.50;99.90;;;;;;5127775;28;20063;-62
2022/03/14 08:36:08;;;;;;;6.53;4.95;;;9.50;99.90;;;;;;5126764;28;20408;-65
2022/03/14 08:38:34;;;;;;;6.95;4.90;;;9.60;99.90;;;;;;5106772;28;20079;-63
2022/03/14 08:41:00;;;;;;;7.47;4.90;;;9.60;99.90;;;;;;5128016;28;20058;-64
2022/03/14 08:43:26;;;;;;;6.47;4.70;;;9.60;99.90;;;;;;5126688;28;20122;-63
2022/03/14 08:45:53;;;;;;;7.05;5.10;;;9.60;99.90;;;;;;5127234;28;20119;-64
2022/03/14 08:48:19;;;;;;;6.22;4.85;;;9.60;99.90;;;;;;5121726;28;20055;-62
2022/03/14 08:50:45;;;;;;;7.30;5.30;;;9.60;99.90;;;;;;5127236;28;20035;-62
2022/03/14 08:53:10;;;;;;;9.00;5.57;;;9.60;99.90;;;;;;5097192;28;20055;-64
2022/03/14 08:55:36;;;;;;;7.40;5.10;;;9.70;99.90;;;;;;5086417;28;20066;-64
2022/03/14 08:58:03;;;;;;;7.43;5.03;;;9.70;99.90;;;;;;5105739;28;20039;-62
2022/03/14 09:00:29;;;;;;;7.05;5.00;;;9.70;99.90;;;;;;5100364;28;20477;-65
2022/03/14 09:02:56;;;;;;;7.32;5.68;;;9.80;99.90;;;;;;5097057;28;20127;-63
2022/03/14 09:05:22;;;;;;;8.90;5.65;;;9.70;99.90;;;;;;5077310;28;20070;-65
2022/03/14 09:07:48;;;;;;;6.78;5.25;;;9.80;99.90;;;;;;5074637;28;20123;-62
2022/03/14 09:10:17;;;;;;;6.90;4.22;;;9.80;99.90;;;;;;5074576;28;20131;-63
2022/03/14 09:12:43;;;;;;;6.95;5.28;;;9.80;99.90;;;;;;5087186;28;20172;-62
2022/03/14 09:15:10;;;;;;;7.38;5.43;;;9.80;99.90;;;;;;5094288;28;20123;-63
2022/03/14 09:17:54;;;;;;;7.63;5.40;;;9.80;99.90;;;;;;5112289;28;20118;-63
2022/03/14 09:20:21;;;;;;;7.13;5.65;;;9.80;99.90;;;;;;5095027;28;20060;-63
2022/03/14 09:22:47;;;;;;;8.27;5.70;;;9.90;99.90;;;;;;5094213;28;20143;-63
2022/03/14 09:25:14;;;;;;;6.93;5.72;;;9.90;99.90;;;;;;5094789;28;20040;-64
2022/03/14 09:27:41;;;;;;;8.43;6.15;;;9.90;99.90;;;;;;5094023;28;20054;-63
2022/03/14 09:30:08;;;;;;;8.60;5.60;;;9.90;99.90;;;;;;5112905;28;20051;-64
2022/03/14 09:32:34;;;;;;;8.60;6.20;;;10.00;99.90;;;;;;5093578;28;20047;-62
2022/03/14 09:35:00;;;;;;;13.45;6.20;;;10.00;99.90;;;;;;5093954;28;20052;-62
2022/03/14 09:37:30;;;;;;;9.80;6.47;;;10.00;99.90;;;;;;5111891;28;20051;-66
2022/03/14 09:39:56;;;;;;;9.07;6.20;;;10.00;99.90;;;;;;5094382;28;20067;-63
2022/03/14 09:42:24;;;;;;;7.47;6.20;;;10.10;99.90;;;;;;5094115;28;20056;-63
2022/03/14 09:44:53;;;;;;;8.07;6.20;;;10.10;99.90;;;;;;5091801;28;20501;-63
2022/03/14 09:47:23;;;;;;;8.02;6.25;;;10.10;99.90;;;;;;5092557;28;20088;-63
2022/03/14 09:49:51;;;;;;;9.02;6.45;;;10.20;99.90;;;;;;5091802;28;20054;-63
2022/03/14 09:52:18;;;;;;;8.40;6.63;;;10.10;99.90;;;;;;5111909;28;20537;-63
2022/03/14 09:54:45;;;;;;;10.90;7.10;;;10.10;99.90;;;;;;5111239;28;20130;-63
2022/03/14 09:57:11;;;;;;;8.95;6.20;;;10.10;99.90;;;;;;5112282;28;20048;-63
2022/03/14 09:59:37;;;;;;;8.15;6.53;;;10.10;99.90;;;;;;5110336;28;20071;-63
2022/03/14 10:02:04;;;;;;;8.57;6.97;;;10.10;99.90;;;;;;5102806;28;20074;-63
2022/03/14 10:04:29;;;;;;;9.15;6.75;;;10.10;99.90;;;;;;5110525;28;20063;-65
2022/03/14 10:06:55;;;;;;;8.68;6.93;;;10.10;99.90;;;;;;5060583;28;20058;-63
2022/03/14 10:09:22;;;;;;;9.13;7.40;;;10.10;99.90;;;;;;5110823;28;20085;-64
2022/03/14 10:11:48;;;;;;;10.02;7.10;;;10.00;99.90;;;;;;5087125;28;20148;-65
2022/03/14 10:14:19;;;;;;;10.93;7.97;;;10.10;99.90;;;;;;5092821;28;20484;-63
2022/03/14 10:16:45;;;;;;;12.48;9.30;;;10.00;99.90;;;;;;5103674;28;20047;-62
2022/03/14 10:19:14;;;;;;;11.43;9.10;;;10.00;99.90;;;;;;5101036;28;20075;-64
2022/03/14 10:21:43;;;;;;;15.43;11.57;;;9.90;99.90;;;;;;5081808;28;20094;-62
2022/03/14 10:24:12;;;;;;;17.48;11.38;;;9.90;99.90;;;;;;5092907;28;20079;-64
2022/03/14 10:26:41;;;;;;;20.35;14.45;;;9.80;99.90;;;;;;5096221;28;20048;-63
2022/03/14 10:29:10;;;;;;;18.33;13.52;;;9.70;99.90;;;;;;5100180;28;20044;-63
2022/03/14 10:31:39;;;;;;;21.83;13.95;;;9.60;99.90;;;;;;5105696;28;20079;-65
2022/03/14 10:34:10;;;;;;;22.38;13.60;;;9.60;99.90;;;;;;5107517;28;20043;-64
2022/03/14 10:36:47;;;;;;;24.17;13.90;;;9.50;99.90;;;;;;5099778;28;20141;-63
2022/03/14 10:39:19;;;;;;;20.50;12.68;;;9.60;99.90;;;;;;5094952;28;20443;-64
2022/03/14 10:41:47;;;;;;;19.98;12.85;;;9.60;99.90;;;;;;5081224;28;20051;-63
2022/03/14 10:44:23;;;;;;;22.02;12.82;;;9.60;99.90;;;;;;5106127;28;20036;-63
2022/03/14 10:46:49;;;;;;;21.15;11.25;;;9.60;99.90;;;;;;5098278;28;20086;-63
2022/03/14 10:49:16;;;;;;;17.55;11.02;;;9.60;99.90;;;;;;5098273;28;20047;-65
2022/03/14 10:51:56;;;;;;;16.88;10.25;;;9.70;99.90;;;;;;5102572;28;20091;-64
2022/03/14 10:54:22;;;;;;;12.73;7.20;;;9.70;99.90;;;;;;5099073;28;20065;-63
2022/03/14 10:57:23;;;;;;;17.48;9.73;;;9.70;99.90;;;;;;5108892;28;20412;-63
2022/03/14 10:59:53;;;;;;;16.27;9.02;;;9.90;99.90;;;;;;5019553;28;20525;-62
2022/03/14 11:02:27;;;;;;;15.65;8.85;;;9.90;99.90;;;;;;5076303;28;20350;-62
2022/03/14 11:04:59;;;;;;;16.35;9.07;;;9.90;99.90;;;;;;5098915;28;20047;-64
2022/03/14 11:07:31;;;;;;;14.85;8.05;;;9.90;99.90;;;;;;5091238;28;20505;-65
2022/03/14 11:09:59;;;;;;;19.17;8.80;;;10.00;99.90;;;;;;5102625;28;20039;-64
2022/03/14 11:12:27;;;;;;;18.77;9.15;;;10.00;99.90;;;;;;5106498;28;20047;-64
2022/03/14 11:15:05;;;;;;;19.58;7.97;;;10.00;99.90;;;;;;5108182;28;20488;-64
2022/03/14 11:17:32;;;;;;;16.60;8.13;;;9.90;99.90;;;;;;5092575;28;20404;-64
2022/03/14 11:19:58;;;;;;;13.50;7.43;;;9.90;99.90;;;;;;5109939;28;20551;-63
2022/03/14 11:22:26;;;;;;;17.23;8.00;;;10.00;99.90;;;;;;5087511;28;20489;-62
2022/03/14 11:24:54;;;;;;;16.48;8.02;;;9.90;99.90;;;;;;5077404;28;20047;-62
2022/03/14 11:27:24;;;;;;;16.33;7.38;;;9.90;99.90;;;;;;5092113;28;20063;-63
2022/03/14 11:29:53;;;;;;;16.40;8.02;;;9.90;99.90;;;;;;5088918;28;20052;-65
2022/03/14 11:32:20;;;;;;;20.88;8.40;;;9.90;99.90;;;;;;5088615;28;20415;-62
2022/03/14 11:34:48;;;;;;;18.67;7.88;;;10.00;99.90;;;;;;5073151;28;20404;-63
2022/03/14 11:37:15;;;;;;;15.57;8.30;;;9.90;99.90;;;;;;5107943;28;20054;-63
2022/03/14 11:39:42;;;;;;;21.73;7.82;;;9.90;99.90;;;;;;5106624;28;20468;-63
2022/03/14 11:42:09;;;;;;;17.33;8.35;;;9.90;99.90;;;;;;5095634;28;20043;-62
2022/03/14 11:44:36;;;;;;;18.88;8.13;;;9.90;99.90;;;;;;5088811;28;20122;-63
2022/03/14 11:47:02;;;;;;;19.13;7.47;;;9.90;99.90;;;;;;5108397;28;20063;-63
2022/03/14 11:49:30;;;;;;;19.30;8.23;;;9.90;99.90;;;;;;5110845;28;20130;-61
2022/03/14 11:52:09;;;;;;;16.85;7.95;;;10.00;99.90;;;;;;5097037;28;20457;-62
2022/03/14 11:54:37;;;;;;;19.83;8.38;;;10.00;99.90;;;;;;5075672;28;20058;-63
2022/03/14 11:57:03;;;;;;;17.50;7.78;;;10.00;99.90;;;;;;5110046;28;20377;-62
2022/03/14 11:59:31;;;;;;;14.10;7.50;;;10.00;99.90;;;;;;5110918;28;20478;-62
2022/03/14 12:02:00;;;;;;;17.55;8.32;;;10.00;99.90;;;;;;5097776;28;20046;-63
2022/03/14 12:04:31;;;;;;;16.88;7.53;;;10.00;99.90;;;;;;5098073;28;20497;-62
2022/03/14 12:06:57;;;;;;;13.48;7.45;;;10.00;99.90;;;;;;5109163;28;20099;-63
2022/03/14 12:09:25;;;;;;;18.83;7.85;;;10.00;99.90;;;;;;5110579;28;20052;-62
2022/03/14 12:11:55;;;;;;;15.13;7.57;;;10.10;99.90;;;;;;5075157;28;20055;-61
2022/03/14 12:14:40;;;;;;;15.38;7.57;;;10.10;99.90;;;;;;5107264;28;20046;-63
2022/03/14 12:17:15;;;;;;;15.95;7.40;;;10.10;99.90;;;;;;5109952;28;20058;-63
2022/03/14 12:19:59;;;;;;;15.68;7.35;;;10.10;99.90;;;;;;5108786;28;20048;-63
2022/03/14 12:22:32;;;;;;;13.25;7.60;;;10.10;99.90;;;;;;5102198;28;20059;-62
2022/03/14 12:24:59;;;;;;;17.45;7.70;;;10.10;99.90;;;;;;5106682;28;20135;-63
2022/03/14 12:27:33;;;;;;;13.85;7.35;;;10.20;99.90;;;;;;5110126;28;20118;-61
2022/03/14 12:30:00;;;;;;;14.10;8.10;;;10.10;99.90;;;;;;5109563;28;20485;-61
2022/03/14 12:32:49;;;;;;;22.75;7.50;;;10.10;99.90;;;;;;5110253;28;20309;-63
2022/03/14 12:35:21;;;;;;;15.45;8.48;;;10.10;99.90;;;;;;5091968;28;20043;-62
2022/03/14 12:37:54;;;;;;;14.82;8.38;;;10.10;99.90;;;;;;5109876;28;20516;-62
2022/03/14 12:40:20;;;;;;;13.60;9.43;;;10.10;99.90;;;;;;5112311;28;20157;-62
2022/03/14 12:42:51;;;;;;;18.60;8.80;;;10.20;99.90;;;;;;5106391;28;20128;-62
2022/03/14 12:45:38;;;;;;;21.88;9.63;;;10.20;99.90;;;;;;5109425;28;20044;-62
2022/03/14 12:48:15;;;;;;;22.95;9.98;;;10.30;99.90;;;;;;5095388;28;20047;-61
2022/03/14 12:50:52;;;;;;;18.20;9.35;;;10.30;99.90;;;;;;5112095;28;20481;-61